createdAt,value
2023-05-08T00:00:40.851Z,13.38
2023-05-08T00:03:10.444Z,13.36
2023-05-08T00:05:42.276Z,13.34
2023-05-08T00:08:11.785Z,13.31
2023-05-08T00:10:41.266Z,13.34
2023-05-08T00:13:10.792Z,13.30
2023-05-08T00:15:41.784Z,13.27
2023-05-08T00:18:11.818Z,13.28
2023-05-08T00:20:41.811Z,13.28
2023-05-08T00:23:11.212Z,13.26
2023-05-08T00:25:40.717Z,13.21
2023-05-08T00:28:10.169Z,13.19
2023-05-08T00:30:42.570Z,13.22
2023-05-08T00:33:12.441Z,13.20
2023-05-08T00:35:42.895Z,13.21
2023-05-08T00:38:12.475Z,13.19
2023-05-08T00:40:42.933Z,13.18
2023-05-08T00:43:12.504Z,13.20
2023-05-08T00:45:43.301Z,13.20
2023-05-08T00:48:12.895Z,13.18
2023-05-08T00:50:43.452Z,13.21
2023-05-08T00:53:13.914Z,13.16
2023-05-08T00:55:43.801Z,13.17
2023-05-08T00:58:14.791Z,13.15
2023-05-08T01:00:47.765Z,13.14
2023-05-08T01:03:17.251Z,13.12
2023-05-08T01:05:47.640Z,13.13
2023-05-08T01:08:17.357Z,13.13
2023-05-08T01:11:02.687Z,13.11
2023-05-08T01:13:51.941Z,13.10
2023-05-08T01:16:37.082Z,13.11
2023-05-08T01:19:33.685Z,13.09
2023-05-08T01:22:21.472Z,13.08
2023-05-08T01:25:30.605Z,13.07
2023-05-08T01:29:11.294Z,13.06
2023-05-08T01:32:07.277Z,13.09
2023-05-08T01:34:43.914Z,13.09
2023-05-08T01:37:19.639Z,13.10
2023-05-08T01:40:00.309Z,13.09
2023-05-08T01:42:50.562Z,13.09
2023-05-08T01:45:29.407Z,13.08
2023-05-08T01:48:07.334Z,13.10
2023-05-08T01:50:48.440Z,13.10
2023-05-08T01:53:27.120Z,13.11
2023-05-08T01:56:09.063Z,13.14
2023-05-08T01:58:39.942Z,13.12
2023-05-08T02:01:11.643Z,13.12
2023-05-08T02:03:44.526Z,13.12
2023-05-08T02:06:17.290Z,13.12
2023-05-08T02:08:49.428Z,13.14
2023-05-08T02:11:22.154Z,13.14
2023-05-08T02:13:52.502Z,13.14
2023-05-08T02:16:23.158Z,13.15
2023-05-08T02:18:57.683Z,13.13
2023-05-08T02:21:28.813Z,13.14
2023-05-08T02:23:59.407Z,13.14
2023-05-08T02:26:29.839Z,13.13
2023-05-08T02:28:59.905Z,13.14
2023-05-08T02:31:30.810Z,13.16
2023-05-08T02:34:02.486Z,13.13
2023-05-08T02:36:33.776Z,13.13
2023-05-08T02:39:05.046Z,13.10
2023-05-08T02:41:35.689Z,13.12
2023-05-08T02:44:05.726Z,13.10
2023-05-08T02:46:47.749Z,13.06
2023-05-08T02:49:31.355Z,13.05
2023-05-08T02:52:12.282Z,13.05
2023-05-08T02:54:51.404Z,13.06
2023-05-08T02:57:35.163Z,13.04
2023-05-08T03:00:14.085Z,13.06
2023-05-08T03:02:49.502Z,13.05
2023-05-08T03:05:29.373Z,13.03
2023-05-08T03:08:06.332Z,13.02
2023-05-08T03:10:38.567Z,13.03
2023-05-08T03:13:10.963Z,13.01
2023-05-08T03:15:47.923Z,13.00
2023-05-08T03:18:22.897Z,12.97
2023-05-08T03:20:59.310Z,12.96
2023-05-08T03:23:32.415Z,12.93
2023-05-08T03:26:04.468Z,12.89
2023-05-08T03:28:36.749Z,12.85
2023-05-08T03:31:07.416Z,12.80
2023-05-08T03:33:40.822Z,12.77
2023-05-08T03:36:13.548Z,12.75
2023-05-08T03:38:43.553Z,12.71
2023-05-08T03:41:13.993Z,12.69
2023-05-08T03:43:44.619Z,12.68
2023-05-08T03:46:15.028Z,12.66
2023-05-08T03:48:45.473Z,12.64
2023-05-08T03:51:17.695Z,12.62
2023-05-08T03:53:47.448Z,12.62
2023-05-08T03:56:17.459Z,12.61
2023-05-08T03:58:56.387Z,12.59
2023-05-08T04:01:40.810Z,12.57
2023-05-08T04:04:25.242Z,12.55
2023-05-08T04:07:07.899Z,12.52
2023-05-08T04:09:58.697Z,12.50
2023-05-08T04:12:39.792Z,12.47
2023-05-08T04:15:16.857Z,12.46
2023-05-08T04:17:55.292Z,12.44
2023-05-08T04:20:30.670Z,12.40
2023-05-08T04:23:03.654Z,12.40
2023-05-08T04:25:37.981Z,12.40
2023-05-08T04:28:08.536Z,12.36
2023-05-08T04:30:40.564Z,12.36
2023-05-08T04:33:10.726Z,12.34
2023-05-08T04:35:40.523Z,12.31
2023-05-08T04:38:11.886Z,12.29
2023-05-08T04:40:42.749Z,12.26
2023-05-08T04:43:14.068Z,12.23
2023-05-08T04:45:43.759Z,12.18
2023-05-08T04:48:13.489Z,12.18
2023-05-08T04:50:43.099Z,12.18
2023-05-08T04:53:15.101Z,12.14
2023-05-08T04:55:44.800Z,12.09
2023-05-08T04:58:14.338Z,12.05
2023-05-08T05:00:44.185Z,12.05
2023-05-08T05:03:13.833Z,12.01
2023-05-08T05:05:43.610Z,12.00
2023-05-08T05:08:14.504Z,11.98
2023-05-08T05:10:44.248Z,11.96
2023-05-08T05:13:13.915Z,11.93
2023-05-08T05:15:44.307Z,11.91
2023-05-08T05:18:14.678Z,11.88
2023-05-08T05:20:44.246Z,11.85
2023-05-08T05:23:15.340Z,11.84
2023-05-08T05:25:44.851Z,11.84
2023-05-08T05:28:14.583Z,11.81
2023-05-08T05:30:44.052Z,11.80
2023-05-08T05:33:14.249Z,11.79
2023-05-08T05:35:43.883Z,11.76
2023-05-08T05:38:15.156Z,11.77
2023-05-08T05:40:44.750Z,11.77
2023-05-08T05:43:14.234Z,11.78
2023-05-08T05:45:43.767Z,11.76
2023-05-08T05:48:13.576Z,11.81
2023-05-08T05:50:44.263Z,11.79
2023-05-08T05:53:15.694Z,11.83
2023-05-08T05:55:45.184Z,11.85
2023-05-08T05:58:15.801Z,11.87
2023-05-08T06:00:47.563Z,11.91
2023-05-08T06:03:17.148Z,11.95
2023-05-08T06:05:48.675Z,11.98
2023-05-08T06:08:19.492Z,12.01
2023-05-08T06:10:49.023Z,12.05
2023-05-08T06:13:18.666Z,12.08
2023-05-08T06:15:49.401Z,12.08
2023-05-08T06:18:18.973Z,12.07
2023-05-08T06:20:48.541Z,12.08
2023-05-08T06:23:19.382Z,12.11
2023-05-08T06:25:49.184Z,12.09
2023-05-08T06:28:18.870Z,12.09
2023-05-08T06:30:48.445Z,12.09
2023-05-08T06:33:18.244Z,12.13
2023-05-08T06:35:48.725Z,12.11
2023-05-08T06:38:19.846Z,12.14
2023-05-08T06:40:50.617Z,12.17
2023-05-08T06:43:20.204Z,12.19
2023-05-08T06:45:49.692Z,12.20
2023-05-08T06:48:19.170Z,12.23
2023-05-08T06:50:49.078Z,12.26
2023-05-08T06:53:19.978Z,12.28
2023-05-08T06:55:49.581Z,12.32
2023-05-08T06:58:19.269Z,12.33
2023-05-08T07:00:48.800Z,12.35
2023-05-08T07:03:18.385Z,12.39
2023-05-08T07:05:47.916Z,12.38
2023-05-08T07:08:18.825Z,12.36
2023-05-08T07:10:48.346Z,12.36
2023-05-08T07:13:21.939Z,12.35
2023-05-08T07:15:51.685Z,12.37
2023-05-08T07:18:21.236Z,12.39
2023-05-08T07:20:50.700Z,12.44
2023-05-08T07:23:21.700Z,12.48
2023-05-08T07:25:51.330Z,12.48
2023-05-08T07:28:20.935Z,12.47
2023-05-08T07:30:50.686Z,12.49
2023-05-08T07:33:20.265Z,12.53
2023-05-08T07:35:50.068Z,12.59
2023-05-08T07:38:21.049Z,12.66
2023-05-08T07:40:51.848Z,12.72
2023-05-08T07:43:21.346Z,12.77
2023-05-08T07:45:50.939Z,12.84
2023-05-08T07:48:20.452Z,12.92
2023-05-08T07:50:51.226Z,12.94
2023-05-08T07:53:22.150Z,12.99
2023-05-08T07:55:51.833Z,13.09
2023-05-08T07:58:23.681Z,13.17
2023-05-08T08:00:53.737Z,13.26
2023-05-08T08:03:23.457Z,13.31
2023-05-08T08:05:53.025Z,13.37
2023-05-08T08:08:24.121Z,13.41
2023-05-08T08:10:53.694Z,13.42
2023-05-08T08:13:23.251Z,13.47
2023-05-08T08:15:53.012Z,13.53
2023-05-08T08:18:22.571Z,13.67
2023-05-08T08:20:52.202Z,13.82
2023-05-08T08:23:23.135Z,13.95
2023-05-08T08:25:53.609Z,14.11
2023-05-08T08:28:23.076Z,14.32
2023-05-08T08:30:52.641Z,14.50
2023-05-08T08:33:22.289Z,14.64
2023-05-08T08:35:51.882Z,14.73
2023-05-08T08:38:22.855Z,14.82
2023-05-08T08:40:54.229Z,14.86
2023-05-08T08:43:23.826Z,14.98
2023-05-08T08:45:53.832Z,15.08
2023-05-08T08:48:28.148Z,15.22
2023-05-08T08:51:03.894Z,15.38
2023-05-08T08:53:44.494Z,15.54
2023-05-08T08:56:15.505Z,15.66
2023-05-08T08:58:55.758Z,15.75
2023-05-08T09:01:29.291Z,15.85
2023-05-08T09:04:00.192Z,15.95
2023-05-08T09:06:29.916Z,16.11
2023-05-08T09:09:01.016Z,16.15
2023-05-08T09:11:30.790Z,16.25
2023-05-08T09:14:00.831Z,16.37
2023-05-08T09:16:30.559Z,16.51
2023-05-08T09:19:00.067Z,16.63
2023-05-08T09:21:30.373Z,16.66
2023-05-08T09:24:04.284Z,16.79
2023-05-08T09:26:37.015Z,16.96
2023-05-08T09:29:14.092Z,17.09
2023-05-08T09:31:48.806Z,17.26
2023-05-08T09:34:28.227Z,17.40
2023-05-08T09:37:12.470Z,17.44
2023-05-08T09:39:45.825Z,17.45
2023-05-08T09:42:25.686Z,17.63
2023-05-08T09:44:55.795Z,17.76
2023-05-08T09:47:26.445Z,17.85
2023-05-08T09:50:00.821Z,17.96
2023-05-08T09:52:32.253Z,18.04
2023-05-08T09:55:05.544Z,18.07
2023-05-08T09:57:40.084Z,18.17
2023-05-08T10:00:13.201Z,18.18
2023-05-08T10:02:57.006Z,18.22
2023-05-08T10:05:31.590Z,18.30
2023-05-08T10:08:21.353Z,18.37
2023-05-08T10:10:53.272Z,18.08
2023-05-08T10:13:22.952Z,17.82
2023-05-08T10:15:56.582Z,17.88
2023-05-08T10:18:28.736Z,17.98
2023-05-08T10:21:05.640Z,18.06
2023-05-08T10:23:36.374Z,18.18
2023-05-08T10:26:14.642Z,18.23
2023-05-08T10:28:58.076Z,18.34
2023-05-08T10:31:30.119Z,18.37
2023-05-08T10:34:03.591Z,18.29
2023-05-08T10:36:33.752Z,18.17
2023-05-08T10:39:03.851Z,18.05
2023-05-08T10:41:37.242Z,18.07
2023-05-08T10:44:10.202Z,18.10
2023-05-08T10:46:52.075Z,18.12
2023-05-08T10:49:31.457Z,18.11
2023-05-08T10:52:18.075Z,18.27
2023-05-08T10:55:19.571Z,18.29
2023-05-08T10:58:15.129Z,18.35
2023-05-08T11:01:16.433Z,18.42
2023-05-08T11:03:55.178Z,18.28
2023-05-08T11:06:48.817Z,18.48
2023-05-08T11:09:24.008Z,18.62
2023-05-08T11:12:09.209Z,18.70
2023-05-08T11:14:43.848Z,18.87
2023-05-08T11:17:13.376Z,18.75
2023-05-08T11:19:59.138Z,18.64
2023-05-08T11:22:32.801Z,18.57
2023-05-08T11:25:08.800Z,18.55
2023-05-08T11:28:12.475Z,18.73
2023-05-08T11:30:45.574Z,18.81
2023-05-08T11:33:18.996Z,18.93
2023-05-08T11:35:57.914Z,19.16
2023-05-08T11:38:35.979Z,19.35
2023-05-08T11:41:08.563Z,19.46
2023-05-08T11:44:21.100Z,19.63
2023-05-08T11:46:54.926Z,19.68
2023-05-08T11:49:29.806Z,19.83
2023-05-08T11:52:01.104Z,19.91
2023-05-08T11:54:32.734Z,20.08
2023-05-08T11:57:02.916Z,20.10
2023-05-08T11:59:37.735Z,20.10
2023-05-08T12:02:09.758Z,20.15
2023-05-08T12:04:47.819Z,20.09
2023-05-08T12:07:18.743Z,19.96
2023-05-08T12:09:50.407Z,19.95
2023-05-08T12:12:22.308Z,19.70
2023-05-08T12:14:53.977Z,19.68
2023-05-08T12:17:26.730Z,19.63
2023-05-08T12:20:04.182Z,19.64
2023-05-08T12:22:33.838Z,19.77
2023-05-08T12:25:08.459Z,19.90
2023-05-08T12:27:41.453Z,20.06
2023-05-08T12:30:16.938Z,20.10
2023-05-08T12:32:49.941Z,20.14
2023-05-08T12:35:20.643Z,20.03
2023-05-08T12:37:53.502Z,20.03
2023-05-08T12:40:29.835Z,20.11
2023-05-08T12:43:05.876Z,20.01
2023-05-08T12:45:40.891Z,19.94
2023-05-08T12:48:15.730Z,19.84
2023-05-08T12:50:48.781Z,19.62
2023-05-08T12:53:24.358Z,19.70
2023-05-08T12:55:58.388Z,19.74
2023-05-08T12:58:32.611Z,19.84
2023-05-08T13:01:13.835Z,19.78
2023-05-08T13:03:50.875Z,19.73
2023-05-08T13:06:30.514Z,19.77
2023-05-08T13:09:01.904Z,19.79
2023-05-08T13:11:34.594Z,19.72
2023-05-08T13:14:05.770Z,19.71
2023-05-08T13:16:47.705Z,19.68
2023-05-08T13:19:21.341Z,19.67
2023-05-08T13:21:53.365Z,19.69
2023-05-08T13:24:23.308Z,19.68
2023-05-08T13:26:54.877Z,19.71
2023-05-08T13:29:24.472Z,19.73
2023-05-08T13:31:54.069Z,19.67
2023-05-08T13:34:25.540Z,19.60
2023-05-08T13:36:55.048Z,19.52
2023-05-08T13:39:24.551Z,19.46
2023-05-08T13:41:54.010Z,19.41
2023-05-08T13:44:23.438Z,19.30
2023-05-08T13:46:52.938Z,19.20
2023-05-08T13:49:24.277Z,19.02
2023-05-08T13:51:57.224Z,18.92
2023-05-08T13:54:26.972Z,18.79
2023-05-08T13:56:56.690Z,18.71
2023-05-08T13:59:26.460Z,18.62
2023-05-08T14:01:55.920Z,18.55
2023-05-08T14:04:27.272Z,18.45
2023-05-08T14:06:56.860Z,18.38
2023-05-08T14:09:30.115Z,18.32
2023-05-08T14:12:01.238Z,18.28
2023-05-08T14:14:32.303Z,18.28
2023-05-08T14:17:02.747Z,18.20
2023-05-08T14:19:33.717Z,18.19
2023-05-08T14:22:03.260Z,18.13
2023-05-08T14:24:32.788Z,18.09
2023-05-08T14:27:05.728Z,18.07
2023-05-08T14:29:35.395Z,18.10
2023-05-08T14:32:05.706Z,18.02
2023-05-08T14:34:36.614Z,17.98
2023-05-08T14:37:06.199Z,17.96
2023-05-08T14:39:35.679Z,17.93
2023-05-08T14:42:22.165Z,17.82
2023-05-08T14:44:52.818Z,17.77
2023-05-08T14:47:23.447Z,17.70
2023-05-08T14:49:54.694Z,17.71
2023-05-08T14:52:24.162Z,17.76
2023-05-08T14:54:54.059Z,17.78
2023-05-08T14:57:23.835Z,17.79
2023-05-08T14:59:55.655Z,17.78
2023-05-08T15:02:25.575Z,17.73
2023-05-08T15:04:56.390Z,17.72
2023-05-08T15:07:25.860Z,17.63
2023-05-08T15:09:55.307Z,17.59
2023-05-08T15:12:24.845Z,17.56
2023-05-08T15:14:54.539Z,17.49
2023-05-08T15:17:24.115Z,17.48
2023-05-08T15:19:54.958Z,17.36
2023-05-08T15:22:26.368Z,17.31
2023-05-08T15:25:01.983Z,17.29
2023-05-08T15:27:33.505Z,17.26
2023-05-08T15:30:02.978Z,17.20
2023-05-08T15:32:32.626Z,17.17
2023-05-08T15:35:03.464Z,17.12
2023-05-08T15:37:33.055Z,17.05
2023-05-08T15:40:02.566Z,17.02
2023-05-08T15:42:32.023Z,16.95
2023-05-08T15:45:02.037Z,16.90
2023-05-08T15:47:31.950Z,16.83
2023-05-08T15:50:02.824Z,16.77
2023-05-08T15:52:32.318Z,16.73
2023-05-08T15:55:02.080Z,16.70
2023-05-08T15:57:31.678Z,16.66
2023-05-08T16:00:01.617Z,16.64
2023-05-08T16:02:31.735Z,16.59
